AirNav   Air Wisconsin Up To $57,000 Bonus
 
 1154 users online  

SD78 Anderson Aerial Spraying Airport
Kennebec, South Dakota, USA

GOING TO KENNEBEC?


FAA INFORMATION EFFECTIVE 01 DECEMBER 2022

Location

FAA Identifier: SD78
Lat/Long: 43-54-05.5000N 099-52-43.9000W
43-54.091667N 099-52.731667W
43.9015278,-99.8788611
(estimated)
Elevation: 1750 ft. / 533 m (estimated)
Variation: 08E (1995)
From city: 1 mile E of KENNEBEC, SD
Time zone: UTC -6 (UTC -5 during Daylight Saving Time)
Zip code: 57544

Airport Operations

Airport use: Private use. Permission required prior to landing
Activation date: 02/1998
Control tower: no
ARTCC: MINNEAPOLIS CENTER
FSS: HURON FLIGHT SERVICE STATION
Attendance: UNATNDD
Segmented circle: no

Nearby radio navigation aids

VOR radial/distance  VOR name  Freq  Var
PIRr147/32.0PIERRE VORTAC113.7511E

Airport Services

Runway Information

Runway 12/30

Dimensions: 2900 x 40 ft. / 884 x 12 m
Surface: turf
RUNWAY 12  RUNWAY 30
Traffic pattern: leftleft

Airport Ownership and Management from official FAA records

Ownership: Privately-owned
Owner: JAMES ANDERSON
BOX 352
KENNEBEC, SD 57544
Phone 605-869-2440
Manager: JAMES ANDERSON
BOX 352
KENNEBECSD 57544
Phone 605-689-2440

Airport Operational Statistics

Aircraft based on the field: 3
Single engine airplanes: 3
    

Additional Remarks

FOR CD CTC MINNEAPOLIS ARTCC AT 651-463-5588.

Instrument Procedures

There are no published instrument procedures at SD78.

Some nearby airports with instrument procedures:

9V9 - Chamberlain Municipal Airport (25 nm E)
KICR - Winner Regional Airport (31 nm S)
KPIR - Pierre Regional Airport (34 nm NW)
9D0 - Highmore Municipal Airport (43 nm NE)
9D1 - Gregory Municipal Airport - Flynn Field (46 nm SE)
 
Loc | Ops | Rwys | IFR | FBO | Links
Com | Nav | Svcs | Stats | Notes

Bismarck Aero Center
AirBoss

 
Area around SD78 (Anderson Aerial Spraying Airport)
 
Road maps at: MapQuest Bing Google
 
Aerial photo
WARNING: Photo may not be current or correct
Aerial photo of SD78 (Anderson Aerial Spraying Airport)
Photo by Steve Hamilton
Photo taken 29-Oct-2008

Do you have a better or more recent aerial photo of Anderson Aerial Spraying Airport that you would like to share? If so, please send us your photo.

 
Sectional chart

 
Airport distance calculator
Flying to Anderson Aerial Spraying Airport? Find the distance to fly.

From to SD78

Sunrise and sunset
Times for 01-Dec-2022
 Local
(UTC-6)
 Zulu
(UTC)
Morning civil twilight07:2313:23
Sunrise07:5513:55
Sunset17:0223:02
Evening civil twilight17:3523:35

Current date and time
Zulu (UTC)  02-Dec-2022 01:51:28
Local (UTC-6)  01-Dec-2022 19:51:28
 
METAR
K9V9 
26nm E 
020135Z AUTO 18014KT 10SM CLR 04/M03 A2963 RMK AO2 T00401032
KICR 
31nm S 
020053Z AUTO 17017G28KT 10SM CLR 06/M03 A2962 RMK AO2 PK WND 17031/0037 SLP044 T00561033
KPIR 
34nm NW 
020053Z AUTO 14008KT 10SM CLR 03/M05 A2955 RMK AO2 SLP023 T00331050
TAF
KPIR 
34nm NW 
011722Z 0118/0218 21009KT P6SM SCT200 FM012200 14009KT P6SM SCT200 FM020600 20010KT P6SM BKN250 WS020/25040KT FM020800 25010G16KT P6SM SCT250 WS020/26040KT FM021000 29013KT P6SM BKN200 WS020/27040KT FM021300 33015G23KT P6SM BKN150 FM021700 33023G32KT P6SM BKN040
NOTAMs
Click for the latest NOTAMs
NOTAMs are issued by the DoD/FAA and will open in a separate window not controlled by AirNav.

 

 
 

Would you like to see your business listed on this page?

 If your business provides an interesting product or service to pilots, flight crews, aircraft, or users of the Anderson Aerial Spraying Airport, you should consider listing it here.  To start the listing process, click on the button below
 
Add a business
 

Other Pages about Anderson Aerial Spraying Airport

Update a link
 
Copyright © AirNav, LLC. All rights reserved. Privacy Policy  Contact